sensor_id;sensor_type;location;lat;lon;timestamp;P1;durP1;ratioP1;P2;durP2;ratioP2
34481;SDS011;20720;48.886;9.388;2023-08-08T00:01:37;2.38;;;0.98;;
34481;SDS011;20720;48.886;9.388;2023-08-08T00:04:02;2.10;;;1.10;;
34481;SDS011;20720;48.886;9.388;2023-08-08T00:06:27;3.03;;;1.10;;
34481;SDS011;20720;48.886;9.388;2023-08-08T00:08:53;2.20;;;1.05;;
34481;SDS011;20720;48.886;9.388;2023-08-08T00:11:18;2.33;;;1.08;;
34481;SDS011;20720;48.886;9.388;2023-08-08T00:13:45;4.38;;;1.33;;
34481;SDS011;20720;48.886;9.388;2023-08-08T00:16:10;1.88;;;0.80;;
34481;SDS011;20720;48.886;9.388;2023-08-08T00:18:35;4.78;;;1.20;;
34481;SDS011;20720;48.886;9.388;2023-08-08T00:21:01;2.47;;;1.10;;
34481;SDS011;20720;48.886;9.388;2023-08-08T00:23:26;4.72;;;1.20;;
34481;SDS011;20720;48.886;9.388;2023-08-08T00:25:51;4.30;;;0.85;;
34481;SDS011;20720;48.886;9.388;2023-08-08T00:28:17;1.88;;;0.90;;
34481;SDS011;20720;48.886;9.388;2023-08-08T00:30:43;5.68;;;0.90;;
34481;SDS011;20720;48.886;9.388;2023-08-08T00:33:08;1.85;;;0.85;;
34481;SDS011;20720;48.886;9.388;2023-08-08T00:35:33;2.42;;;1.00;;
34481;SDS011;20720;48.886;9.388;2023-08-08T00:37:59;3.13;;;1.13;;
34481;SDS011;20720;48.886;9.388;2023-08-08T00:40:24;2.30;;;1.30;;
34481;SDS011;20720;48.886;9.388;2023-08-08T00:42:49;3.90;;;1.08;;
34481;SDS011;20720;48.886;9.388;2023-08-08T00:45:15;1.60;;;0.90;;
34481;SDS011;20720;48.886;9.388;2023-08-08T00:47:40;6.63;;;0.98;;
34481;SDS011;20720;48.886;9.388;2023-08-08T00:50:05;4.75;;;1.20;;
34481;SDS011;20720;48.886;9.388;2023-08-08T00:52:31;1.27;;;0.75;;
34481;SDS011;20720;48.886;9.388;2023-08-08T00:54:57;2.20;;;1.02;;
34481;SDS011;20720;48.886;9.388;2023-08-08T00:57:23;2.92;;;0.93;;
34481;SDS011;20720;48.886;9.388;2023-08-08T00:59:48;1.65;;;0.70;;
34481;SDS011;20720;48.886;9.388;2023-08-08T01:02:13;2.13;;;0.80;;
34481;SDS011;20720;48.886;9.388;2023-08-08T01:04:39;2.42;;;0.90;;
34481;SDS011;20720;48.886;9.388;2023-08-08T01:07:27;2.13;;;1.00;;
34481;SDS011;20720;48.886;9.388;2023-08-08T01:10:17;3.22;;;1.10;;
34481;SDS011;20720;48.886;9.388;2023-08-08T01:12:52;1.90;;;0.80;;
34481;SDS011;20720;48.886;9.388;2023-08-08T01:15:20;2.30;;;0.95;;
34481;SDS011;20720;48.886;9.388;2023-08-08T01:17:47;2.08;;;1.00;;
34481;SDS011;20720;48.886;9.388;2023-08-08T01:20:13;1.60;;;0.73;;
34481;SDS011;20720;48.886;9.388;2023-08-08T01:23:43;4.75;;;1.13;;
34481;SDS011;20720;48.886;9.388;2023-08-08T01:25:51;1.95;;;0.82;;
34481;SDS011;20720;48.886;9.388;2023-08-08T01:28:20;2.70;;;0.90;;
34481;SDS011;20720;48.886;9.388;2023-08-08T01:30:47;2.65;;;1.13;;
34481;SDS011;20720;48.886;9.388;2023-08-08T01:33:12;4.35;;;1.10;;
34481;SDS011;20720;48.886;9.388;2023-08-08T01:35:38;3.53;;;1.00;;
34481;SDS011;20720;48.886;9.388;2023-08-08T01:38:08;3.95;;;1.10;;
34481;SDS011;20720;48.886;9.388;2023-08-08T01:40:35;2.90;;;1.10;;
34481;SDS011;20720;48.886;9.388;2023-08-08T01:43:01;2.38;;;1.05;;
34481;SDS011;20720;48.886;9.388;2023-08-08T01:45:29;2.40;;;1.10;;
34481;SDS011;20720;48.886;9.388;2023-08-08T01:47:54;1.92;;;0.90;;
34481;SDS011;20720;48.886;9.388;2023-08-08T01:50:19;2.65;;;1.00;;
34481;SDS011;20720;48.886;9.388;2023-08-08T01:52:46;2.13;;;1.10;;
34481;SDS011;20720;48.886;9.388;2023-08-08T01:55:11;2.45;;;1.02;;
34481;SDS011;20720;48.886;9.388;2023-08-08T01:57:37;2.10;;;0.75;;
34481;SDS011;20720;48.886;9.388;2023-08-08T02:00:02;2.03;;;1.05;;
34481;SDS011;20720;48.886;9.388;2023-08-08T02:02:29;1.95;;;1.00;;
34481;SDS011;20720;48.886;9.388;2023-08-08T02:04:54;1.98;;;0.95;;
34481;SDS011;20720;48.886;9.388;2023-08-08T02:07:20;2.38;;;1.05;;
34481;SDS011;20720;48.886;9.388;2023-08-08T02:09:45;1.75;;;0.90;;
34481;SDS011;20720;48.886;9.388;2023-08-08T02:12:11;2.40;;;1.10;;
34481;SDS011;20720;48.886;9.388;2023-08-08T02:14:36;2.05;;;1.13;;
34481;SDS011;20720;48.886;9.388;2023-08-08T02:17:02;3.33;;;1.15;;
34481;SDS011;20720;48.886;9.388;2023-08-08T02:19:27;1.77;;;0.80;;
34481;SDS011;20720;48.886;9.388;2023-08-08T02:21:53;3.30;;;0.80;;
34481;SDS011;20720;48.886;9.388;2023-08-08T02:24:18;1.70;;;0.93;;
34481;SDS011;20720;48.886;9.388;2023-08-08T02:26:43;2.08;;;0.90;;
34481;SDS011;20720;48.886;9.388;2023-08-08T02:29:08;2.58;;;1.00;;
34481;SDS011;20720;48.886;9.388;2023-08-08T02:31:34;2.10;;;0.90;;
34481;SDS011;20720;48.886;9.388;2023-08-08T02:33:59;1.70;;;1.00;;
34481;SDS011;20720;48.886;9.388;2023-08-08T02:36:24;2.42;;;1.10;;
34481;SDS011;20720;48.886;9.388;2023-08-08T02:38:49;3.40;;;1.00;;
34481;SDS011;20720;48.886;9.388;2023-08-08T02:41:18;2.08;;;0.90;;
34481;SDS011;20720;48.886;9.388;2023-08-08T02:43:43;2.95;;;1.20;;
34481;SDS011;20720;48.886;9.388;2023-08-08T02:46:08;2.42;;;0.90;;
34481;SDS011;20720;48.886;9.388;2023-08-08T02:48:34;2.10;;;0.77;;
34481;SDS011;20720;48.886;9.388;2023-08-08T02:50:59;3.78;;;0.95;;
34481;SDS011;20720;48.886;9.388;2023-08-08T02:53:24;4.35;;;1.40;;
34481;SDS011;20720;48.886;9.388;2023-08-08T02:55:50;1.88;;;1.02;;
34481;SDS011;20720;48.886;9.388;2023-08-08T02:58:15;3.72;;;0.95;;
34481;SDS011;20720;48.886;9.388;2023-08-08T03:00:40;5.85;;;1.23;;
34481;SDS011;20720;48.886;9.388;2023-08-08T03:03:05;4.32;;;0.98;;
34481;SDS011;20720;48.886;9.388;2023-08-08T03:05:31;2.72;;;1.02;;
34481;SDS011;20720;48.886;9.388;2023-08-08T03:07:56;2.53;;;0.95;;
34481;SDS011;20720;48.886;9.388;2023-08-08T03:10:21;2.38;;;0.90;;
34481;SDS011;20720;48.886;9.388;2023-08-08T03:12:47;2.30;;;0.93;;
34481;SDS011;20720;48.886;9.388;2023-08-08T03:15:12;2.67;;;1.10;;
34481;SDS011;20720;48.886;9.388;2023-08-08T03:17:37;1.92;;;1.02;;
34481;SDS011;20720;48.886;9.388;2023-08-08T03:20:03;1.88;;;0.80;;
34481;SDS011;20720;48.886;9.388;2023-08-08T03:22:30;3.58;;;1.10;;
34481;SDS011;20720;48.886;9.388;2023-08-08T03:24:56;3.30;;;1.20;;
34481;SDS011;20720;48.886;9.388;2023-08-08T03:27:21;2.00;;;0.90;;
34481;SDS011;20720;48.886;9.388;2023-08-08T03:29:46;2.92;;;1.20;;
34481;SDS011;20720;48.886;9.388;2023-08-08T03:32:12;2.30;;;1.08;;
34481;SDS011;20720;48.886;9.388;2023-08-08T03:34:37;3.53;;;1.15;;
34481;SDS011;20720;48.886;9.388;2023-08-08T03:37:02;2.60;;;1.25;;
34481;SDS011;20720;48.886;9.388;2023-08-08T03:39:28;1.98;;;1.08;;
34481;SDS011;20720;48.886;9.388;2023-08-08T03:41:53;2.47;;;1.60;;
34481;SDS011;20720;48.886;9.388;2023-08-08T03:44:18;2.85;;;1.13;;
34481;SDS011;20720;48.886;9.388;2023-08-08T03:46:44;2.25;;;1.23;;
34481;SDS011;20720;48.886;9.388;2023-08-08T03:49:09;2.67;;;1.17;;
34481;SDS011;20720;48.886;9.388;2023-08-08T03:51:34;2.92;;;1.20;;
34481;SDS011;20720;48.886;9.388;2023-08-08T03:54:00;3.03;;;1.20;;
34481;SDS011;20720;48.886;9.388;2023-08-08T03:56:25;4.28;;;1.92;;
34481;SDS011;20720;48.886;9.388;2023-08-08T03:58:52;3.00;;;1.73;;
34481;SDS011;20720;48.886;9.388;2023-08-08T04:01:17;3.17;;;1.38;;
34481;SDS011;20720;48.886;9.388;2023-08-08T04:03:42;2.85;;;1.35;;
34481;SDS011;20720;48.886;9.388;2023-08-08T04:06:07;2.78;;;1.30;;
34481;SDS011;20720;48.886;9.388;2023-08-08T04:08:32;2.63;;;1.30;;
34481;SDS011;20720;48.886;9.388;2023-08-08T04:10:58;1.92;;;1.00;;
34481;SDS011;20720;48.886;9.388;2023-08-08T04:13:23;2.45;;;1.40;;
34481;SDS011;20720;48.886;9.388;2023-08-08T04:15:48;2.45;;;1.23;;
34481;SDS011;20720;48.886;9.388;2023-08-08T04:18:16;2.10;;;1.20;;
34481;SDS011;20720;48.886;9.388;2023-08-08T04:20:41;4.50;;;1.30;;
34481;SDS011;20720;48.886;9.388;2023-08-08T04:23:07;2.67;;;1.27;;
34481;SDS011;20720;48.886;9.388;2023-08-08T04:25:32;2.42;;;1.35;;
34481;SDS011;20720;48.886;9.388;2023-08-08T04:27:57;3.72;;;1.50;;
34481;SDS011;20720;48.886;9.388;2023-08-08T04:30:23;3.67;;;1.13;;
34481;SDS011;20720;48.886;9.388;2023-08-08T04:32:48;4.38;;;1.02;;
34481;SDS011;20720;48.886;9.388;2023-08-08T04:35:14;2.15;;;1.17;;
34481;SDS011;20720;48.886;9.388;2023-08-08T04:37:39;1.95;;;1.23;;
34481;SDS011;20720;48.886;9.388;2023-08-08T04:40:05;2.35;;;1.30;;
34481;SDS011;20720;48.886;9.388;2023-08-08T04:42:32;2.88;;;1.30;;
34481;SDS011;20720;48.886;9.388;2023-08-08T04:44:57;3.05;;;1.27;;
34481;SDS011;20720;48.886;9.388;2023-08-08T04:47:23;3.42;;;1.27;;
34481;SDS011;20720;48.886;9.388;2023-08-08T04:49:48;3.15;;;1.30;;
34481;SDS011;20720;48.886;9.388;2023-08-08T04:52:13;3.70;;;1.08;;
34481;SDS011;20720;48.886;9.388;2023-08-08T04:54:38;2.53;;;1.40;;
34481;SDS011;20720;48.886;9.388;2023-08-08T04:57:04;2.58;;;1.17;;
34481;SDS011;20720;48.886;9.388;2023-08-08T04:59:29;3.40;;;1.77;;
34481;SDS011;20720;48.886;9.388;2023-08-08T05:01:55;4.22;;;2.15;;
34481;SDS011;20720;48.886;9.388;2023-08-08T05:04:20;4.35;;;3.30;;
34481;SDS011;20720;48.886;9.388;2023-08-08T05:06:45;2.72;;;1.73;;
34481;SDS011;20720;48.886;9.388;2023-08-08T05:09:11;3.38;;;1.60;;
34481;SDS011;20720;48.886;9.388;2023-08-08T05:11:36;4.38;;;1.42;;
34481;SDS011;20720;48.886;9.388;2023-08-08T05:14:01;4.10;;;1.17;;
34481;SDS011;20720;48.886;9.388;2023-08-08T05:16:27;3.85;;;1.50;;
34481;SDS011;20720;48.886;9.388;2023-08-08T05:18:52;3.45;;;1.42;;
34481;SDS011;20720;48.886;9.388;2023-08-08T05:21:19;3.78;;;1.13;;
34481;SDS011;20720;48.886;9.388;2023-08-08T05:23:46;3.20;;;1.00;;
34481;SDS011;20720;48.886;9.388;2023-08-08T05:26:11;2.22;;;1.20;;
34481;SDS011;20720;48.886;9.388;2023-08-08T05:28:36;3.13;;;1.20;;
34481;SDS011;20720;48.886;9.388;2023-08-08T05:31:02;1.45;;;0.82;;
34481;SDS011;20720;48.886;9.388;2023-08-08T05:33:27;2.83;;;1.30;;
34481;SDS011;20720;48.886;9.388;2023-08-08T05:35:52;3.47;;;1.23;;
34481;SDS011;20720;48.886;9.388;2023-08-08T05:38:18;2.25;;;1.00;;
34481;SDS011;20720;48.886;9.388;2023-08-08T05:40:43;2.58;;;1.08;;
34481;SDS011;20720;48.886;9.388;2023-08-08T05:43:08;2.47;;;1.00;;
34481;SDS011;20720;48.886;9.388;2023-08-08T05:45:33;3.13;;;1.00;;
34481;SDS011;20720;48.886;9.388;2023-08-08T05:47:59;1.80;;;0.80;;
34481;SDS011;20720;48.886;9.388;2023-08-08T05:50:26;4.00;;;1.00;;
34481;SDS011;20720;48.886;9.388;2023-08-08T05:52:52;2.80;;;1.38;;
34481;SDS011;20720;48.886;9.388;2023-08-08T05:55:17;2.22;;;1.08;;
34481;SDS011;20720;48.886;9.388;2023-08-08T05:57:42;2.40;;;1.13;;
34481;SDS011;20720;48.886;9.388;2023-08-08T06:00:08;2.88;;;0.90;;
34481;SDS011;20720;48.886;9.388;2023-08-08T06:02:36;3.72;;;1.20;;
34481;SDS011;20720;48.886;9.388;2023-08-08T06:05:02;1.85;;;0.80;;
34481;SDS011;20720;48.886;9.388;2023-08-08T06:07:27;4.38;;;1.27;;
34481;SDS011;20720;48.886;9.388;2023-08-08T06:09:52;2.55;;;1.20;;
34481;SDS011;20720;48.886;9.388;2023-08-08T06:12:18;2.90;;;0.98;;
34481;SDS011;20720;48.886;9.388;2023-08-08T06:14:43;1.55;;;0.90;;
34481;SDS011;20720;48.886;9.388;2023-08-08T06:17:08;2.28;;;1.05;;
34481;SDS011;20720;48.886;9.388;2023-08-08T06:19:34;5.15;;;1.05;;
34481;SDS011;20720;48.886;9.388;2023-08-08T06:21:59;2.88;;;0.90;;
34481;SDS011;20720;48.886;9.388;2023-08-08T06:24:25;2.25;;;1.10;;
34481;SDS011;20720;48.886;9.388;2023-08-08T06:26:50;2.10;;;1.00;;
34481;SDS011;20720;48.886;9.388;2023-08-08T06:29:15;3.20;;;1.08;;
34481;SDS011;20720;48.886;9.388;2023-08-08T06:31:40;1.08;;;0.60;;
34481;SDS011;20720;48.886;9.388;2023-08-08T06:34:06;1.40;;;0.70;;
34481;SDS011;20720;48.886;9.388;2023-08-08T06:36:31;2.10;;;0.80;;
34481;SDS011;20720;48.886;9.388;2023-08-08T06:38:57;2.80;;;1.23;;
34481;SDS011;20720;48.886;9.388;2023-08-08T06:41:22;3.95;;;1.10;;
34481;SDS011;20720;48.886;9.388;2023-08-08T06:43:47;4.70;;;0.75;;
34481;SDS011;20720;48.886;9.388;2023-08-08T06:46:12;5.68;;;0.95;;
34481;SDS011;20720;48.886;9.388;2023-08-08T06:48:41;3.05;;;1.27;;
34481;SDS011;20720;48.886;9.388;2023-08-08T06:51:10;2.13;;;0.98;;
34481;SDS011;20720;48.886;9.388;2023-08-08T06:53:36;6.95;;;1.25;;
34481;SDS011;20720;48.886;9.388;2023-08-08T06:56:01;4.53;;;1.13;;
34481;SDS011;20720;48.886;9.388;2023-08-08T06:58:26;3.72;;;1.10;;
34481;SDS011;20720;48.886;9.388;2023-08-08T07:00:52;2.45;;;1.10;;
34481;SDS011;20720;48.886;9.388;2023-08-08T07:03:17;4.32;;;1.02;;
34481;SDS011;20720;48.886;9.388;2023-08-08T07:05:42;1.75;;;0.90;;
34481;SDS011;20720;48.886;9.388;2023-08-08T07:08:07;1.95;;;1.00;;
34481;SDS011;20720;48.886;9.388;2023-08-08T07:10:34;2.25;;;1.00;;
34481;SDS011;20720;48.886;9.388;2023-08-08T07:13:00;2.53;;;0.90;;
34481;SDS011;20720;48.886;9.388;2023-08-08T07:15:25;2.88;;;1.08;;
34481;SDS011;20720;48.886;9.388;2023-08-08T07:17:51;1.85;;;0.82;;
34481;SDS011;20720;48.886;9.388;2023-08-08T07:20:16;2.05;;;0.70;;
34481;SDS011;20720;48.886;9.388;2023-08-08T07:22:42;2.53;;;1.00;;
34481;SDS011;20720;48.886;9.388;2023-08-08T07:25:08;3.10;;;0.90;;
34481;SDS011;20720;48.886;9.388;2023-08-08T07:27:34;1.83;;;0.85;;
34481;SDS011;20720;48.886;9.388;2023-08-08T07:29:59;1.13;;;0.55;;
34481;SDS011;20720;48.886;9.388;2023-08-08T07:32:26;2.20;;;0.75;;
34481;SDS011;20720;48.886;9.388;2023-08-08T07:34:51;2.97;;;0.88;;
34481;SDS011;20720;48.886;9.388;2023-08-08T07:37:16;1.17;;;0.60;;
34481;SDS011;20720;48.886;9.388;2023-08-08T07:39:41;2.63;;;0.80;;
34481;SDS011;20720;48.886;9.388;2023-08-08T07:42:07;1.80;;;0.70;;
34481;SDS011;20720;48.886;9.388;2023-08-08T07:44:32;1.95;;;0.70;;
34481;SDS011;20720;48.886;9.388;2023-08-08T07:46:59;1.70;;;0.85;;
34481;SDS011;20720;48.886;9.388;2023-08-08T07:49:24;1.73;;;0.60;;
34481;SDS011;20720;48.886;9.388;2023-08-08T07:51:50;2.47;;;1.05;;
34481;SDS011;20720;48.886;9.388;2023-08-08T07:54:15;2.05;;;0.80;;
34481;SDS011;20720;48.886;9.388;2023-08-08T07:56:40;1.27;;;0.60;;
34481;SDS011;20720;48.886;9.388;2023-08-08T07:59:07;3.95;;;0.90;;
34481;SDS011;20720;48.886;9.388;2023-08-08T08:01:34;1.80;;;0.57;;
34481;SDS011;20720;48.886;9.388;2023-08-08T08:03:59;2.05;;;0.95;;
34481;SDS011;20720;48.886;9.388;2023-08-08T08:06:25;3.70;;;0.93;;
34481;SDS011;20720;48.886;9.388;2023-08-08T08:08:50;1.77;;;0.80;;
34481;SDS011;20720;48.886;9.388;2023-08-08T08:11:15;7.70;;;1.08;;
34481;SDS011;20720;48.886;9.388;2023-08-08T08:13:41;5.20;;;1.00;;
34481;SDS011;20720;48.886;9.388;2023-08-08T08:16:07;1.50;;;0.60;;
34481;SDS011;20720;48.886;9.388;2023-08-08T08:18:33;2.00;;;0.75;;
34481;SDS011;20720;48.886;9.388;2023-08-08T08:20:58;2.00;;;0.90;;
34481;SDS011;20720;48.886;9.388;2023-08-08T08:23:24;2.13;;;0.98;;
34481;SDS011;20720;48.886;9.388;2023-08-08T08:25:49;5.35;;;1.20;;
34481;SDS011;20720;48.886;9.388;2023-08-08T08:28:15;3.05;;;0.80;;
34481;SDS011;20720;48.886;9.388;2023-08-08T08:30:41;1.42;;;0.73;;
34481;SDS011;20720;48.886;9.388;2023-08-08T08:33:06;2.80;;;0.73;;
34481;SDS011;20720;48.886;9.388;2023-08-08T08:35:33;4.53;;;0.90;;
34481;SDS011;20720;48.886;9.388;2023-08-08T08:37:59;2.03;;;0.85;;
34481;SDS011;20720;48.886;9.388;2023-08-08T08:40:24;1.60;;;0.70;;
34481;SDS011;20720;48.886;9.388;2023-08-08T08:42:50;1.75;;;0.80;;
34481;SDS011;20720;48.886;9.388;2023-08-08T08:45:15;2.78;;;0.80;;
34481;SDS011;20720;48.886;9.388;2023-08-08T08:47:44;2.28;;;1.00;;
34481;SDS011;20720;48.886;9.388;2023-08-08T08:50:12;1.60;;;0.75;;
34481;SDS011;20720;48.886;9.388;2023-08-08T08:52:39;2.72;;;0.70;;
34481;SDS011;20720;48.886;9.388;2023-08-08T08:55:04;3.03;;;1.17;;
34481;SDS011;20720;48.886;9.388;2023-08-08T08:57:31;3.35;;;1.20;;
34481;SDS011;20720;48.886;9.388;2023-08-08T08:59:58;3.97;;;0.80;;
34481;SDS011;20720;48.886;9.388;2023-08-08T09:02:23;2.25;;;1.00;;
34481;SDS011;20720;48.886;9.388;2023-08-08T09:04:49;2.03;;;0.70;;
34481;SDS011;20720;48.886;9.388;2023-08-08T09:07:16;3.05;;;0.80;;
34481;SDS011;20720;48.886;9.388;2023-08-08T09:09:43;1.98;;;0.70;;
34481;SDS011;20720;48.886;9.388;2023-08-08T09:12:09;1.88;;;0.90;;
34481;SDS011;20720;48.886;9.388;2023-08-08T09:14:38;2.13;;;0.70;;
34481;SDS011;20720;48.886;9.388;2023-08-08T09:17:09;2.40;;;0.90;;
34481;SDS011;20720;48.886;9.388;2023-08-08T09:19:36;1.77;;;0.60;;
34481;SDS011;20720;48.886;9.388;2023-08-08T09:22:01;2.38;;;0.70;;
34481;SDS011;20720;48.886;9.388;2023-08-08T09:24:26;2.55;;;0.85;;
34481;SDS011;20720;48.886;9.388;2023-08-08T09:26:52;2.58;;;0.80;;
34481;SDS011;20720;48.886;9.388;2023-08-08T09:29:17;2.97;;;1.17;;
34481;SDS011;20720;48.886;9.388;2023-08-08T09:31:42;1.48;;;0.65;;
34481;SDS011;20720;48.886;9.388;2023-08-08T09:34:08;1.73;;;0.70;;
34481;SDS011;20720;48.886;9.388;2023-08-08T09:36:33;3.25;;;1.00;;
34481;SDS011;20720;48.886;9.388;2023-08-08T09:39:00;3.10;;;1.00;;
34481;SDS011;20720;48.886;9.388;2023-08-08T09:41:25;1.80;;;0.85;;
34481;SDS011;20720;48.886;9.388;2023-08-08T09:43:51;2.53;;;0.93;;
34481;SDS011;20720;48.886;9.388;2023-08-08T09:46:18;2.00;;;0.80;;
34481;SDS011;20720;48.886;9.388;2023-08-08T09:48:44;2.17;;;0.85;;
34481;SDS011;20720;48.886;9.388;2023-08-08T09:51:10;1.85;;;0.80;;
34481;SDS011;20720;48.886;9.388;2023-08-08T09:53:35;2.80;;;0.70;;
34481;SDS011;20720;48.886;9.388;2023-08-08T09:56:03;1.63;;;0.70;;
34481;SDS011;20720;48.886;9.388;2023-08-08T09:58:29;3.17;;;0.80;;
34481;SDS011;20720;48.886;9.388;2023-08-08T10:00:55;2.45;;;0.90;;
34481;SDS011;20720;48.886;9.388;2023-08-08T10:03:21;1.85;;;0.90;;
34481;SDS011;20720;48.886;9.388;2023-08-08T10:05:47;1.35;;;0.70;;
34481;SDS011;20720;48.886;9.388;2023-08-08T10:08:14;1.40;;;0.70;;
34481;SDS011;20720;48.886;9.388;2023-08-08T10:10:40;4.20;;;1.02;;
34481;SDS011;20720;48.886;9.388;2023-08-08T10:13:08;2.05;;;0.80;;
34481;SDS011;20720;48.886;9.388;2023-08-08T10:15:36;1.80;;;0.70;;
34481;SDS011;20720;48.886;9.388;2023-08-08T10:18:02;3.28;;;0.80;;
34481;SDS011;20720;48.886;9.388;2023-08-08T10:20:28;1.52;;;0.60;;
34481;SDS011;20720;48.886;9.388;2023-08-08T10:22:57;1.63;;;0.90;;
34481;SDS011;20720;48.886;9.388;2023-08-08T10:25:23;2.25;;;0.73;;
34481;SDS011;20720;48.886;9.388;2023-08-08T10:28:00;3.05;;;0.80;;
34481;SDS011;20720;48.886;9.388;2023-08-08T10:30:42;2.60;;;0.88;;
34481;SDS011;20720;48.886;9.388;2023-08-08T10:33:23;1.15;;;0.55;;
34481;SDS011;20720;48.886;9.388;2023-08-08T10:36:05;3.13;;;0.80;;
34481;SDS011;20720;48.886;9.388;2023-08-08T10:38:39;1.95;;;0.77;;
34481;SDS011;20720;48.886;9.388;2023-08-08T10:41:08;2.08;;;0.75;;
34481;SDS011;20720;48.886;9.388;2023-08-08T10:43:37;2.10;;;0.80;;
34481;SDS011;20720;48.886;9.388;2023-08-08T10:46:03;2.92;;;0.70;;
34481;SDS011;20720;48.886;9.388;2023-08-08T10:48:29;1.38;;;0.70;;
34481;SDS011;20720;48.886;9.388;2023-08-08T10:50:55;1.77;;;0.73;;
34481;SDS011;20720;48.886;9.388;2023-08-08T10:53:24;2.95;;;0.90;;
34481;SDS011;20720;48.886;9.388;2023-08-08T10:56:01;1.27;;;0.70;;
34481;SDS011;20720;48.886;9.388;2023-08-08T10:58:37;3.63;;;0.80;;
34481;SDS011;20720;48.886;9.388;2023-08-08T11:01:04;1.23;;;0.55;;
34481;SDS011;20720;48.886;9.388;2023-08-08T11:03:35;1.95;;;0.70;;
34481;SDS011;20720;48.886;9.388;2023-08-08T11:06:01;1.88;;;0.70;;
34481;SDS011;20720;48.886;9.388;2023-08-08T11:08:29;2.42;;;0.73;;
34481;SDS011;20720;48.886;9.388;2023-08-08T11:10:55;2.53;;;0.60;;
34481;SDS011;20720;48.886;9.388;2023-08-08T11:13:21;1.92;;;0.80;;
34481;SDS011;20720;48.886;9.388;2023-08-08T11:15:46;1.40;;;0.70;;
34481;SDS011;20720;48.886;9.388;2023-08-08T11:18:11;1.85;;;0.60;;
34481;SDS011;20720;48.886;9.388;2023-08-08T11:20:38;1.88;;;0.80;;
34481;SDS011;20720;48.886;9.388;2023-08-08T11:23:04;3.05;;;0.98;;
34481;SDS011;20720;48.886;9.388;2023-08-08T11:25:35;1.45;;;0.65;;
34481;SDS011;20720;48.886;9.388;2023-08-08T11:28:01;1.55;;;0.70;;
34481;SDS011;20720;48.886;9.388;2023-08-08T11:30:30;1.83;;;0.50;;
34481;SDS011;20720;48.886;9.388;2023-08-08T11:32:59;2.92;;;0.80;;
34481;SDS011;20720;48.886;9.388;2023-08-08T11:35:25;2.45;;;0.60;;
34481;SDS011;20720;48.886;9.388;2023-08-08T11:37:52;1.73;;;0.68;;
34481;SDS011;20720;48.886;9.388;2023-08-08T11:40:18;2.35;;;0.55;;
34481;SDS011;20720;48.886;9.388;2023-08-08T11:42:45;2.25;;;0.80;;
34481;SDS011;20720;48.886;9.388;2023-08-08T11:45:11;1.98;;;0.75;;
34481;SDS011;20720;48.886;9.388;2023-08-08T11:47:38;3.20;;;0.73;;
34481;SDS011;20720;48.886;9.388;2023-08-08T11:50:05;1.20;;;0.40;;
34481;SDS011;20720;48.886;9.388;2023-08-08T11:52:32;4.80;;;0.90;;
34481;SDS011;20720;48.886;9.388;2023-08-08T11:54:58;1.50;;;0.77;;
34481;SDS011;20720;48.886;9.388;2023-08-08T11:57:27;1.70;;;0.70;;
34481;SDS011;20720;48.886;9.388;2023-08-08T11:59:53;1.30;;;0.60;;
34481;SDS011;20720;48.886;9.388;2023-08-08T12:02:19;2.42;;;0.68;;
34481;SDS011;20720;48.886;9.388;2023-08-08T12:04:45;2.70;;;0.80;;
34481;SDS011;20720;48.886;9.388;2023-08-08T12:07:11;1.58;;;0.70;;
34481;SDS011;20720;48.886;9.388;2023-08-08T12:09:36;1.10;;;0.50;;
34481;SDS011;20720;48.886;9.388;2023-08-08T12:12:02;1.63;;;0.68;;
34481;SDS011;20720;48.886;9.388;2023-08-08T12:14:29;4.88;;;0.70;;
34481;SDS011;20720;48.886;9.388;2023-08-08T12:16:54;1.77;;;0.80;;
34481;SDS011;20720;48.886;9.388;2023-08-08T12:19:24;1.73;;;0.88;;
34481;SDS011;20720;48.886;9.388;2023-08-08T12:21:50;2.50;;;0.70;;
34481;SDS011;20720;48.886;9.388;2023-08-08T12:24:17;1.55;;;0.70;;
34481;SDS011;20720;48.886;9.388;2023-08-08T12:26:43;1.17;;;0.60;;
34481;SDS011;20720;48.886;9.388;2023-08-08T12:29:08;1.65;;;0.63;;
34481;SDS011;20720;48.886;9.388;2023-08-08T12:31:33;2.80;;;0.70;;
34481;SDS011;20720;48.886;9.388;2023-08-08T12:33:59;1.88;;;0.60;;
34481;SDS011;20720;48.886;9.388;2023-08-08T12:36:25;1.90;;;0.90;;
34481;SDS011;20720;48.886;9.388;2023-08-08T12:38:50;1.40;;;0.70;;
34481;SDS011;20720;48.886;9.388;2023-08-08T12:41:15;1.38;;;0.77;;
34481;SDS011;20720;48.886;9.388;2023-08-08T12:43:41;1.85;;;0.80;;
34481;SDS011;20720;48.886;9.388;2023-08-08T12:46:06;2.93;;;0.83;;
34481;SDS011;20720;48.886;9.388;2023-08-08T12:48:31;1.98;;;0.88;;
34481;SDS011;20720;48.886;9.388;2023-08-08T12:50:56;2.45;;;0.90;;
34481;SDS011;20720;48.886;9.388;2023-08-08T12:53:22;1.58;;;0.57;;
34481;SDS011;20720;48.886;9.388;2023-08-08T12:55:47;1.47;;;0.60;;
34481;SDS011;20720;48.886;9.388;2023-08-08T12:58:12;1.33;;;0.63;;
34481;SDS011;20720;48.886;9.388;2023-08-08T13:00:37;3.28;;;0.68;;
34481;SDS011;20720;48.886;9.388;2023-08-08T13:03:03;1.45;;;0.60;;
34481;SDS011;20720;48.886;9.388;2023-08-08T13:05:28;2.70;;;0.70;;
34481;SDS011;20720;48.886;9.388;2023-08-08T13:07:54;3.00;;;0.80;;
34481;SDS011;20720;48.886;9.388;2023-08-08T13:10:19;2.17;;;0.87;;
34481;SDS011;20720;48.886;9.388;2023-08-08T13:12:45;2.70;;;0.80;;
34481;SDS011;20720;48.886;9.388;2023-08-08T13:15:11;3.00;;;0.70;;
34481;SDS011;20720;48.886;9.388;2023-08-08T13:17:36;1.45;;;0.60;;
34481;SDS011;20720;48.886;9.388;2023-08-08T13:20:02;3.88;;;0.98;;
34481;SDS011;20720;48.886;9.388;2023-08-08T13:22:27;1.92;;;0.80;;
34481;SDS011;20720;48.886;9.388;2023-08-08T13:24:53;1.47;;;0.77;;
34481;SDS011;20720;48.886;9.388;2023-08-08T13:27:18;4.80;;;0.90;;
34481;SDS011;20720;48.886;9.388;2023-08-08T13:29:43;1.80;;;0.70;;
34481;SDS011;20720;48.886;9.388;2023-08-08T13:32:08;1.95;;;0.80;;
34481;SDS011;20720;48.886;9.388;2023-08-08T13:34:34;1.83;;;0.70;;
34481;SDS011;20720;48.886;9.388;2023-08-08T13:36:59;1.70;;;0.70;;
34481;SDS011;20720;48.886;9.388;2023-08-08T13:39:24;3.83;;;0.90;;
34481;SDS011;20720;48.886;9.388;2023-08-08T13:41:49;1.27;;;0.67;;
34481;SDS011;20720;48.886;9.388;2023-08-08T13:44:15;2.03;;;0.73;;
34481;SDS011;20720;48.886;9.388;2023-08-08T13:46:40;3.08;;;0.50;;
34481;SDS011;20720;48.886;9.388;2023-08-08T13:49:05;3.00;;;0.87;;
34481;SDS011;20720;48.886;9.388;2023-08-08T13:51:30;2.88;;;0.57;;
34481;SDS011;20720;48.886;9.388;2023-08-08T13:53:56;2.47;;;0.90;;
34481;SDS011;20720;48.886;9.388;2023-08-08T13:56:21;1.60;;;0.68;;
34481;SDS011;20720;48.886;9.388;2023-08-08T13:58:47;2.05;;;0.80;;
34481;SDS011;20720;48.886;9.388;2023-08-08T14:01:12;2.72;;;0.80;;
34481;SDS011;20720;48.886;9.388;2023-08-08T14:03:37;2.65;;;0.70;;
34481;SDS011;20720;48.886;9.388;2023-08-08T14:06:03;1.45;;;0.65;;
34481;SDS011;20720;48.886;9.388;2023-08-08T14:08:28;1.60;;;0.90;;
34481;SDS011;20720;48.886;9.388;2023-08-08T14:10:54;2.88;;;0.80;;
34481;SDS011;20720;48.886;9.388;2023-08-08T14:13:19;1.27;;;0.60;;
34481;SDS011;20720;48.886;9.388;2023-08-08T14:15:46;2.22;;;0.85;;
34481;SDS011;20720;48.886;9.388;2023-08-08T14:18:11;2.83;;;0.70;;
34481;SDS011;20720;48.886;9.388;2023-08-08T14:20:37;1.58;;;0.70;;
34481;SDS011;20720;48.886;9.388;2023-08-08T14:23:03;1.58;;;0.70;;
34481;SDS011;20720;48.886;9.388;2023-08-08T14:25:28;1.75;;;0.52;;
34481;SDS011;20720;48.886;9.388;2023-08-08T14:27:54;2.75;;;0.77;;
34481;SDS011;20720;48.886;9.388;2023-08-08T14:30:21;1.52;;;0.60;;
34481;SDS011;20720;48.886;9.388;2023-08-08T14:32:47;1.70;;;0.70;;
34481;SDS011;20720;48.886;9.388;2023-08-08T14:35:12;3.35;;;0.50;;
34481;SDS011;20720;48.886;9.388;2023-08-08T14:37:38;1.30;;;0.60;;
34481;SDS011;20720;48.886;9.388;2023-08-08T14:40:03;1.40;;;0.70;;
34481;SDS011;20720;48.886;9.388;2023-08-08T14:42:29;1.88;;;0.70;;